createdAt,value
2018-05-17T00:00:22.506Z,14.93
2018-05-17T00:02:50.882Z,14.50
2018-05-17T00:05:19.101Z,13.57
2018-05-17T00:07:47.293Z,13.82
2018-05-17T00:10:15.898Z,13.55
2018-05-17T00:12:44.097Z,13.77
2018-05-17T00:15:12.349Z,13.80
2018-05-17T00:17:40.531Z,14.43
2018-05-17T00:20:08.737Z,15.17
2018-05-17T00:22:36.918Z,15.73
2018-05-17T00:25:05.563Z,13.85
2018-05-17T00:27:33.749Z,14.60
2018-05-17T00:30:01.942Z,14.10
2018-05-17T00:32:31.477Z,14.30
2018-05-17T00:34:59.692Z,13.87
2018-05-17T00:37:27.880Z,14.80
2018-05-17T00:39:56.074Z,14.73
2018-05-17T00:42:24.287Z,13.90
2018-05-17T00:44:54.098Z,15.23
2018-05-17T00:47:22.289Z,14.10
2018-05-17T00:49:50.491Z,15.48
2018-05-17T00:52:18.771Z,14.50
2018-05-17T00:54:46.877Z,14.57
2018-05-17T00:57:15.042Z,14.23
2018-05-17T00:59:49.925Z,14.47
2018-05-17T01:02:21.601Z,15.80
2018-05-17T01:04:49.785Z,15.23
2018-05-17T01:07:18.710Z,15.73
2018-05-17T01:09:46.898Z,16.77
2018-05-17T01:12:15.088Z,14.60
2018-05-17T01:14:43.295Z,15.37
2018-05-17T01:17:11.473Z,14.33
2018-05-17T01:19:39.646Z,15.53
2018-05-17T01:22:07.857Z,14.33
2018-05-17T01:24:36.161Z,13.90
2018-05-17T01:27:04.336Z,12.93
2018-05-17T01:29:34.283Z,13.30
2018-05-17T01:32:02.480Z,13.50
2018-05-17T01:34:30.655Z,13.70
2018-05-17T01:37:10.504Z,13.27
2018-05-17T01:39:38.665Z,12.50
2018-05-17T01:42:06.958Z,12.00
2018-05-17T01:44:35.047Z,12.70
2018-05-17T01:47:03.225Z,12.00
2018-05-17T01:49:31.397Z,11.50
2018-05-17T01:52:15.527Z,12.33
2018-05-17T01:54:43.728Z,11.35
2018-05-17T01:57:11.906Z,12.80
2018-05-17T01:59:40.070Z,12.00
2018-05-17T02:02:08.241Z,12.83
2018-05-17T02:04:36.949Z,11.73
2018-05-17T02:07:05.128Z,12.50
2018-05-17T02:09:33.613Z,12.80
2018-05-17T02:12:01.816Z,12.10
2018-05-17T02:14:29.958Z,11.33
2018-05-17T02:16:58.159Z,11.90
2018-05-17T02:19:26.314Z,11.93
2018-05-17T02:21:54.518Z,11.97
2018-05-17T02:24:22.692Z,11.45
2018-05-17T02:26:50.892Z,12.17
2018-05-17T02:29:19.081Z,12.07
2018-05-17T02:31:49.380Z,12.23
2018-05-17T02:34:17.540Z,11.90
2018-05-17T02:36:45.711Z,12.47
2018-05-17T02:39:13.904Z,13.00
2018-05-17T02:41:42.074Z,12.20
2018-05-17T02:44:14.551Z,11.90
2018-05-17T02:46:42.734Z,12.70
2018-05-17T02:49:11.021Z,11.80
2018-05-17T02:51:39.119Z,12.07
2018-05-17T02:54:07.986Z,12.00
2018-05-17T02:56:36.167Z,12.60
2018-05-17T02:59:04.377Z,12.10
2018-05-17T03:01:32.566Z,11.70
2018-05-17T03:04:00.723Z,11.70
2018-05-17T03:06:28.908Z,12.27
2018-05-17T03:08:57.096Z,11.20
2018-05-17T03:11:25.277Z,13.03
2018-05-17T03:13:53.457Z,11.57
2018-05-17T03:16:21.638Z,11.85
2018-05-17T03:18:49.812Z,11.40
2018-05-17T03:21:18.022Z,13.07
2018-05-17T03:23:46.190Z,12.43
2018-05-17T03:26:14.387Z,11.90
2018-05-17T03:28:42.572Z,12.60
2018-05-17T03:31:11.072Z,12.53
2018-05-17T03:33:39.712Z,12.00
2018-05-17T03:36:09.474Z,12.10
2018-05-17T03:38:37.931Z,12.10
2018-05-17T03:41:06.197Z,11.20
2018-05-17T03:43:34.404Z,12.10
2018-05-17T03:46:02.584Z,11.97
2018-05-17T03:48:36.482Z,12.13
2018-05-17T03:51:04.670Z,11.73
2018-05-17T03:53:32.871Z,12.93
2018-05-17T03:56:01.076Z,12.37
2018-05-17T03:58:32.408Z,11.63
2018-05-17T04:01:12.443Z,13.07
2018-05-17T04:03:52.414Z,13.23
2018-05-17T04:06:42.060Z,13.07
2018-05-17T04:09:10.762Z,11.70
2018-05-17T04:11:38.952Z,12.67
2018-05-17T04:14:07.124Z,12.40
2018-05-17T04:16:35.314Z,12.40
2018-05-17T04:19:03.490Z,12.18
2018-05-17T04:21:31.675Z,11.77
2018-05-17T04:23:59.856Z,12.03
2018-05-17T04:26:28.046Z,12.75
2018-05-17T04:28:56.229Z,11.93
2018-05-17T04:31:24.404Z,12.32
2018-05-17T04:33:52.978Z,12.90
2018-05-17T04:36:21.198Z,11.80
2018-05-17T04:38:49.382Z,12.37
2018-05-17T04:41:28.056Z,13.63
2018-05-17T04:43:56.254Z,13.00
2018-05-17T04:46:24.447Z,13.13
2018-05-17T04:48:52.607Z,12.50
2018-05-17T04:51:21.965Z,11.70
2018-05-17T04:53:50.886Z,12.30
2018-05-17T04:56:19.056Z,11.60
2018-05-17T04:58:53.415Z,12.00
2018-05-17T05:01:21.584Z,11.60
2018-05-17T05:03:50.721Z,11.45
2018-05-17T05:06:19.319Z,11.73
2018-05-17T05:08:47.491Z,11.37
2018-05-17T05:11:15.692Z,11.30
2018-05-17T05:13:45.639Z,11.03
2018-05-17T05:16:17.197Z,10.90
2018-05-17T05:18:45.339Z,10.83
2018-05-17T05:21:13.544Z,10.60
2018-05-17T05:23:41.752Z,10.27
2018-05-17T05:26:10.057Z,10.03
2018-05-17T05:28:38.220Z,9.70
2018-05-17T05:31:06.427Z,9.75
2018-05-17T05:33:34.585Z,9.20
2018-05-17T05:36:02.761Z,9.30
2018-05-17T05:38:31.044Z,10.57
2018-05-17T05:40:59.494Z,8.87
2018-05-17T05:43:27.667Z,9.55
2018-05-17T05:45:56.148Z,9.57
2018-05-17T05:48:24.309Z,8.90
2018-05-17T05:50:52.653Z,9.67
2018-05-17T05:53:21.192Z,8.73
2018-05-17T05:55:49.620Z,8.50
2018-05-17T05:58:18.084Z,9.77
2018-05-17T06:00:46.440Z,8.77
2018-05-17T06:03:14.986Z,8.80
2018-05-17T06:05:43.488Z,9.30
2018-05-17T06:08:11.927Z,9.27
2018-05-17T06:10:40.127Z,8.98
2018-05-17T06:13:08.292Z,8.33
2018-05-17T06:15:36.471Z,9.13
2018-05-17T06:18:04.821Z,7.82
2018-05-17T06:23:07.775Z,8.87
2018-05-17T06:25:36.276Z,8.70
2018-05-17T06:28:04.474Z,8.68
2018-05-17T06:30:32.774Z,8.40
2018-05-17T06:33:01.233Z,8.30
2018-05-17T06:35:29.746Z,9.23
2018-05-17T06:37:57.935Z,9.43
2018-05-17T06:40:26.088Z,9.10
2018-05-17T06:42:54.591Z,7.40
2018-05-17T06:45:22.749Z,8.50
2018-05-17T06:47:51.538Z,9.40
2018-05-17T06:50:19.715Z,9.30
2018-05-17T06:52:57.284Z,8.87
2018-05-17T06:55:25.455Z,8.77
2018-05-17T06:57:53.615Z,9.03
2018-05-17T07:00:21.777Z,8.93
2018-05-17T07:02:55.910Z,8.83
2018-05-17T07:05:24.067Z,9.10
2018-05-17T07:07:52.214Z,8.63
2018-05-17T07:10:20.379Z,8.87
2018-05-17T07:12:48.555Z,9.43
2018-05-17T07:15:17.387Z,9.10
2018-05-17T07:17:55.478Z,8.80
2018-05-17T07:20:24.002Z,8.40
2018-05-17T07:22:52.167Z,8.50
2018-05-17T07:25:20.361Z,10.07
2018-05-17T07:27:48.512Z,9.73
2018-05-17T07:30:16.681Z,10.93
2018-05-17T07:32:44.873Z,11.70
2018-05-17T07:35:13.029Z,9.73
2018-05-17T07:37:41.224Z,10.20
2018-05-17T07:40:22.283Z,9.77
2018-05-17T07:42:56.527Z,9.87
2018-05-17T07:45:34.545Z,9.90
2018-05-17T07:48:02.732Z,10.43
2018-05-17T07:50:34.317Z,10.18
2018-05-17T07:53:02.509Z,9.85
2018-05-17T07:55:30.699Z,9.48
2018-05-17T07:57:58.845Z,9.70
2018-05-17T08:00:27.074Z,9.75
2018-05-17T08:02:55.232Z,9.50
2018-05-17T08:05:23.412Z,10.20
2018-05-17T08:07:52.299Z,9.88
2018-05-17T08:10:20.472Z,9.00
2018-05-17T08:12:48.657Z,8.83
2018-05-17T08:15:30.545Z,8.83
2018-05-17T08:17:58.727Z,9.50
2018-05-17T08:20:27.027Z,9.77
2018-05-17T08:22:55.189Z,9.40
2018-05-17T08:25:24.016Z,9.43
2018-05-17T08:27:55.845Z,9.20
2018-05-17T08:30:24.005Z,8.57
2018-05-17T08:32:52.172Z,7.43
2018-05-17T08:35:20.382Z,8.90
2018-05-17T08:37:48.564Z,8.00
2018-05-17T08:40:17.170Z,8.73
2018-05-17T08:42:57.679Z,8.10
2018-05-17T08:45:25.826Z,9.00
2018-05-17T08:47:54.027Z,8.30
2018-05-17T08:50:22.212Z,9.07
2018-05-17T08:52:50.373Z,8.67
2018-05-17T09:08:38.390Z,9.30
2018-05-17T09:11:06.642Z,9.18
2018-05-17T09:13:34.954Z,9.40
2018-05-17T09:16:03.098Z,8.63
2018-05-17T09:18:31.390Z,9.50
2018-05-17T09:20:59.601Z,8.13
2018-05-17T09:23:27.808Z,8.50
2018-05-17T09:25:55.979Z,9.00
2018-05-17T09:28:24.178Z,9.20
2018-05-17T09:30:52.385Z,8.73
2018-05-17T09:33:20.591Z,9.70
2018-05-17T09:35:48.804Z,9.18
2018-05-17T09:38:16.985Z,10.10
2018-05-17T09:40:45.220Z,9.57
2018-05-17T09:43:13.434Z,9.07
2018-05-17T09:45:41.826Z,8.93
2018-05-17T09:48:10.049Z,8.52
2018-05-17T09:50:38.312Z,9.33
2018-05-17T09:53:06.509Z,9.93
2018-05-17T09:55:35.445Z,9.50
2018-05-17T09:58:03.654Z,10.63
2018-05-17T10:00:31.905Z,15.23
2018-05-17T10:03:00.183Z,16.90
2018-05-17T10:05:28.443Z,13.47
2018-05-17T10:08:01.771Z,12.70
2018-05-17T10:10:30.020Z,17.93
2018-05-17T10:12:58.431Z,12.70
2018-05-17T10:15:26.677Z,20.75
2018-05-17T10:17:54.908Z,18.97
2018-05-17T10:20:23.101Z,14.80
2018-05-17T10:22:51.316Z,11.50
2018-05-17T10:25:19.505Z,12.43
2018-05-17T10:27:47.725Z,15.43
2018-05-17T10:30:15.963Z,23.97
2018-05-17T10:32:44.170Z,21.58
2018-05-17T10:35:12.357Z,12.33
2018-05-17T10:37:40.570Z,15.13
2018-05-17T10:40:08.792Z,14.95
2018-05-17T10:42:36.978Z,14.90
2018-05-17T10:45:05.333Z,11.50
2018-05-17T10:47:33.529Z,12.90
2018-05-17T10:50:02.166Z,12.77
2018-05-17T10:52:31.004Z,13.23
2018-05-17T10:54:59.231Z,11.80
2018-05-17T10:57:27.434Z,11.40
2018-05-17T10:59:55.627Z,10.27
2018-05-17T11:02:23.881Z,11.10
2018-05-17T11:04:52.089Z,12.33
2018-05-17T11:07:20.416Z,10.93
2018-05-17T11:09:48.586Z,10.07
2018-05-17T11:12:16.932Z,11.18
2018-05-17T11:14:45.069Z,10.80
2018-05-17T11:17:13.288Z,10.25
2018-05-17T11:19:41.729Z,10.70
2018-05-17T11:22:11.600Z,11.10
2018-05-17T11:24:39.823Z,11.67
2018-05-17T11:27:08.024Z,11.83
2018-05-17T11:29:36.275Z,11.83
2018-05-17T11:32:04.507Z,11.67
2018-05-17T11:34:32.725Z,12.33
2018-05-17T11:37:00.939Z,10.80
2018-05-17T11:39:29.877Z,13.20
2018-05-17T11:41:58.095Z,13.80
2018-05-17T11:44:27.888Z,13.17
2018-05-17T11:46:56.118Z,12.27
2018-05-17T11:49:24.330Z,10.70
2018-05-17T11:51:52.517Z,9.93
2018-05-17T11:54:20.742Z,11.33
2018-05-17T11:56:48.986Z,11.07
2018-05-17T11:59:17.196Z,9.55
2018-05-17T12:01:45.422Z,9.90
2018-05-17T12:04:13.614Z,9.77
2018-05-17T12:06:41.851Z,10.98
2018-05-17T12:09:11.709Z,10.13
2018-05-17T12:11:39.928Z,10.38
2018-05-17T12:14:08.159Z,11.27
2018-05-17T12:16:36.352Z,10.20
2018-05-17T12:19:04.563Z,10.40
2018-05-17T12:21:34.831Z,10.80
2018-05-17T12:24:03.398Z,9.57
2018-05-17T12:26:32.518Z,13.60
2018-05-17T12:29:01.635Z,12.77
2018-05-17T12:31:29.942Z,10.27
2018-05-17T12:33:58.114Z,10.70
2018-05-17T12:36:26.330Z,9.27
2018-05-17T12:38:54.594Z,9.07
2018-05-17T12:41:22.882Z,9.37
2018-05-17T12:43:51.073Z,9.25
2018-05-17T12:46:19.328Z,10.00
2018-05-17T12:48:47.526Z,10.40
2018-05-17T12:51:15.701Z,12.82
2018-05-17T12:53:43.911Z,12.88
2018-05-17T12:56:12.139Z,13.20
2018-05-17T12:58:42.586Z,13.73
2018-05-17T13:01:13.086Z,11.70
2018-05-17T13:03:41.328Z,12.07
2018-05-17T13:06:09.528Z,11.95
2018-05-17T13:08:37.728Z,12.47
2018-05-17T13:11:05.952Z,12.83
2018-05-17T13:13:34.206Z,13.20
2018-05-17T13:16:02.451Z,14.93
2018-05-17T13:18:30.698Z,14.73
2018-05-17T13:20:58.949Z,14.70
2018-05-17T13:23:27.139Z,14.83
2018-05-17T13:25:55.382Z,14.67
2018-05-17T13:28:23.602Z,13.10
2018-05-17T13:30:51.830Z,14.60
2018-05-17T13:33:20.236Z,14.00
2018-05-17T13:35:48.471Z,12.63
2018-05-17T13:38:16.667Z,13.10
2018-05-17T13:40:44.945Z,13.32
2018-05-17T13:43:13.155Z,15.07
2018-05-17T13:45:41.364Z,16.17
2018-05-17T13:48:09.585Z,17.43
2018-05-17T13:50:37.866Z,17.60
2018-05-17T13:53:06.143Z,18.10
2018-05-17T13:55:34.427Z,21.40
2018-05-17T13:58:02.549Z,21.00
2018-05-17T14:00:30.781Z,22.20
2018-05-17T14:02:58.975Z,22.23
2018-05-17T14:05:28.195Z,21.10
2018-05-17T14:07:56.405Z,21.80
2018-05-17T14:10:24.944Z,22.53
2018-05-17T14:12:53.224Z,22.10
2018-05-17T14:15:21.466Z,23.17
2018-05-17T14:17:50.112Z,21.43
2018-05-17T14:20:18.594Z,20.00
2018-05-17T14:22:47.245Z,17.83
2018-05-17T14:25:15.499Z,17.03
2018-05-17T14:27:43.734Z,15.30
2018-05-17T14:30:12.096Z,14.60
2018-05-17T14:32:40.302Z,15.40
2018-05-17T14:35:08.566Z,15.67
2018-05-17T14:37:37.001Z,16.97
2018-05-17T14:40:05.300Z,16.90
2018-05-17T14:42:34.286Z,16.77
2018-05-17T14:45:05.466Z,17.67
2018-05-17T14:47:34.513Z,18.12
2018-05-17T14:50:02.727Z,18.50
2018-05-17T14:52:30.935Z,19.20
2018-05-17T14:55:01.041Z,18.27
2018-05-17T14:57:29.539Z,18.10
2018-05-17T14:59:58.221Z,17.17
2018-05-17T15:02:26.521Z,18.73
2018-05-17T15:04:55.158Z,17.83
2018-05-17T15:07:24.165Z,18.90
2018-05-17T15:09:52.826Z,20.90
2018-05-17T15:12:21.346Z,60.97
2018-05-17T15:14:49.599Z,33.80
2018-05-17T15:17:17.830Z,18.00
2018-05-17T15:19:46.055Z,19.63
2018-05-17T15:22:14.360Z,18.50
2018-05-17T15:24:42.940Z,19.30
2018-05-17T15:27:11.169Z,18.87
2018-05-17T15:29:39.405Z,18.70
2018-05-17T15:32:07.681Z,18.10
2018-05-17T15:34:35.876Z,18.63
2018-05-17T15:37:04.749Z,19.37
2018-05-17T15:39:33.113Z,18.87
2018-05-17T15:42:01.510Z,19.10
2018-05-17T15:44:29.736Z,18.80
2018-05-17T15:46:57.958Z,18.93
2018-05-17T15:49:27.960Z,18.37
2018-05-17T15:51:56.340Z,18.83
2018-05-17T15:54:24.591Z,18.90
2018-05-17T15:56:52.852Z,18.90
2018-05-17T15:59:21.103Z,18.50
2018-05-17T16:01:49.328Z,19.83
2018-05-17T16:04:17.581Z,19.50
2018-05-17T16:06:45.801Z,22.13
2018-05-17T16:09:14.022Z,20.58
2018-05-17T16:11:42.287Z,19.58
2018-05-17T16:14:10.492Z,21.17
2018-05-17T16:16:38.733Z,20.00
2018-05-17T16:19:06.928Z,19.90
2018-05-17T16:21:35.259Z,20.00
2018-05-17T16:24:03.590Z,20.30
2018-05-17T16:26:31.865Z,20.00
2018-05-17T16:29:00.055Z,18.92
2018-05-17T16:31:28.235Z,19.63
2018-05-17T16:33:56.463Z,19.10
2018-05-17T16:36:24.669Z,20.00
2018-05-17T16:38:52.886Z,19.87
2018-05-17T16:41:21.108Z,19.57
2018-05-17T16:43:49.328Z,19.47
2018-05-17T16:46:17.559Z,18.47
2018-05-17T16:48:45.814Z,19.07
2018-05-17T16:51:14.012Z,19.13
2018-05-17T16:53:42.199Z,18.80
2018-05-17T16:56:10.485Z,18.67
2018-05-17T16:58:38.784Z,19.00
2018-05-17T17:01:07.727Z,20.27
2018-05-17T17:03:36.029Z,17.50
2018-05-17T17:06:04.281Z,19.90
2018-05-17T17:08:32.470Z,18.90
2018-05-17T17:11:01.435Z,18.43
2018-05-17T17:13:29.822Z,18.60
2018-05-17T17:15:58.338Z,18.70
2018-05-17T17:18:27.389Z,18.80
2018-05-17T17:20:55.666Z,18.80
2018-05-17T17:23:24.391Z,20.20
2018-05-17T17:25:54.354Z,17.20
2018-05-17T17:28:25.044Z,20.37
2018-05-17T17:30:53.333Z,19.10
2018-05-17T17:33:22.563Z,19.30
2018-05-17T17:35:50.857Z,19.87
2018-05-17T17:38:19.143Z,19.73
2018-05-17T17:40:50.532Z,19.10
2018-05-17T17:43:18.882Z,19.30
2018-05-17T17:45:47.723Z,18.93
2018-05-17T17:48:17.725Z,19.10
2018-05-17T17:50:46.356Z,19.80
2018-05-17T17:53:14.578Z,20.23
2018-05-17T17:55:42.808Z,20.45
2018-05-17T17:58:11.091Z,20.20
2018-05-17T18:00:39.400Z,19.67
2018-05-17T18:03:07.871Z,20.47
2018-05-17T18:05:36.135Z,19.83
2018-05-17T18:08:04.462Z,19.43
2018-05-17T18:10:32.699Z,20.60
2018-05-17T18:13:00.984Z,19.67
2018-05-17T18:15:30.430Z,21.07
2018-05-17T18:17:58.643Z,21.17
2018-05-17T18:20:29.625Z,20.27
2018-05-17T18:22:57.916Z,19.77
2018-05-17T18:25:26.132Z,21.98
2018-05-17T18:27:54.480Z,22.33
2018-05-17T18:30:23.309Z,20.47
2018-05-17T18:32:54.347Z,21.70
2018-05-17T18:35:22.611Z,22.30
2018-05-17T18:37:51.771Z,21.10
2018-05-17T18:40:22.134Z,21.50
2018-05-17T18:42:50.342Z,21.23
2018-05-17T18:45:19.077Z,20.90
2018-05-17T18:47:47.322Z,22.20
2018-05-17T18:50:20.313Z,23.10
2018-05-17T18:52:49.503Z,23.62
2018-05-17T18:55:22.917Z,23.23
2018-05-17T18:57:49.476Z,23.30
2018-05-17T19:00:20.379Z,23.95
2018-05-17T19:02:48.654Z,24.90
2018-05-17T19:05:17.470Z,23.10
2018-05-17T19:07:45.694Z,22.07
2018-05-17T19:10:13.872Z,21.30
2018-05-17T19:12:42.334Z,23.77
2018-05-17T19:15:20.931Z,27.13
2018-05-17T19:17:49.170Z,22.90
2018-05-17T19:20:17.448Z,24.05
2018-05-17T19:22:47.043Z,25.73
2018-05-17T19:25:15.400Z,23.93
2018-05-17T19:27:43.697Z,24.02
2018-05-17T19:33:08.723Z,24.10
2018-05-17T19:35:37.208Z,24.97
2018-05-17T19:38:05.417Z,23.50
2018-05-17T19:40:33.612Z,25.20
2018-05-17T19:43:01.798Z,25.53
2018-05-17T19:45:30.150Z,24.57
2018-05-17T19:47:58.478Z,24.90
2018-05-17T19:50:26.839Z,25.30
2018-05-17T19:52:55.044Z,27.33
2018-05-17T19:55:23.250Z,24.60
2018-05-17T19:57:51.696Z,25.60
2018-05-17T20:00:20.268Z,26.40
2018-05-17T20:02:48.469Z,26.02
2018-05-17T20:05:17.000Z,25.87
2018-05-17T20:07:45.202Z,25.60
2018-05-17T20:10:13.385Z,26.80
2018-05-17T20:12:41.972Z,25.77
2018-05-17T20:15:10.194Z,25.10
2018-05-17T20:17:39.074Z,26.08
